createdAt,value
2018-08-06T00:00:36.108Z,17.41
2018-08-06T00:01:36.096Z,17.36
2018-08-06T00:02:36.092Z,17.36
2018-08-06T00:03:36.102Z,17.38
2018-08-06T00:04:35.831Z,17.36
2018-08-06T00:05:36.079Z,17.37
2018-08-06T00:06:35.827Z,17.36
2018-08-06T00:07:35.817Z,17.36
2018-08-06T00:08:35.814Z,17.41
2018-08-06T00:09:36.061Z,17.3
2018-08-06T00:10:35.552Z,17.37
2018-08-06T00:11:35.800Z,17.25
2018-08-06T00:12:36.048Z,17.3
2018-08-06T00:13:36.042Z,17.3
2018-08-06T00:14:36.039Z,17.28
2018-08-06T00:15:36.037Z,17.37
2018-08-06T00:16:36.031Z,17.26
2018-08-06T00:17:36.025Z,17.26
2018-08-06T00:18:36.020Z,17.36
2018-08-06T00:19:36.020Z,17.36
2018-08-06T00:20:36.017Z,17.3
2018-08-06T00:21:36.007Z,17.23
2018-08-06T00:22:36.005Z,17.28
2018-08-06T00:23:36.005Z,17.25
2018-08-06T00:24:35.744Z,17.25
2018-08-06T00:25:35.993Z,17.31
2018-08-06T00:26:35.756Z,17.3
2018-08-06T00:27:35.730Z,17.26
2018-08-06T00:28:35.979Z,17.26
2018-08-06T00:29:36.065Z,17.28
2018-08-06T00:30:35.970Z,17.23
2018-08-06T00:31:35.963Z,17.23
2018-08-06T00:32:35.708Z,17.23
2018-08-06T00:33:35.703Z,17.18
2018-08-06T00:34:35.955Z,17.22
2018-08-06T00:35:35.947Z,17.21
2018-08-06T00:36:35.943Z,17.16
2018-08-06T00:37:35.938Z,17.12
2018-08-06T00:38:35.936Z,17.11
2018-08-06T00:39:35.677Z,17.06
2018-08-06T00:40:35.923Z,17.19
2018-08-06T00:41:35.918Z,17.07
2018-08-06T00:42:35.926Z,17.12
2018-08-06T00:43:35.661Z,17.15
2018-08-06T00:44:35.907Z,17.18
2018-08-06T00:45:36.206Z,17.11
2018-08-06T00:46:35.646Z,17.23
2018-08-06T00:47:35.892Z,17.15
2018-08-06T00:48:35.888Z,17.19
2018-08-06T00:49:35.887Z,17.15
2018-08-06T00:50:35.882Z,17.07
2018-08-06T00:51:35.873Z,17.15
2018-08-06T00:52:35.618Z,17.14
2018-08-06T00:53:35.870Z,17.16
2018-08-06T00:54:35.862Z,17.08
2018-08-06T00:55:35.857Z,17.12
2018-08-06T00:56:35.855Z,17.14
2018-08-06T00:57:35.849Z,17.18
2018-08-06T00:58:35.593Z,17.21
2018-08-06T00:59:35.841Z,17.12
2018-08-06T01:00:35.837Z,17.21
2018-08-06T01:01:35.832Z,17.12
2018-08-06T01:02:35.829Z,17.12
2018-08-06T01:03:35.821Z,17.12
2018-08-06T01:04:35.820Z,17.06
2018-08-06T01:05:35.567Z,17.11
2018-08-06T01:06:35.811Z,17.07
2018-08-06T01:07:35.553Z,17.06
2018-08-06T01:08:35.547Z,17.07
2018-08-06T01:09:35.541Z,17.12
2018-08-06T01:10:35.544Z,17.07
2018-08-06T01:11:35.785Z,17.07
2018-08-06T01:12:35.785Z,17.11
2018-08-06T01:13:35.525Z,17
2018-08-06T01:14:35.772Z,17.01
2018-08-06T01:15:35.771Z,17
2018-08-06T01:16:35.763Z,17.03
2018-08-06T01:17:35.761Z,16.98
2018-08-06T01:18:35.754Z,17.01
2018-08-06T01:19:35.752Z,16.98
2018-08-06T01:20:35.498Z,16.93
2018-08-06T01:21:35.738Z,17.01
2018-08-06T01:22:35.736Z,16.97
2018-08-06T01:23:35.733Z,16.93
2018-08-06T01:24:35.729Z,16.91
2018-08-06T01:25:35.469Z,16.98
2018-08-06T01:26:35.465Z,16.93
2018-08-06T01:27:35.721Z,16.89
2018-08-06T01:28:35.458Z,16.91
2018-08-06T01:29:35.712Z,16.93
2018-08-06T01:30:35.447Z,16.98
2018-08-06T01:31:35.698Z,16.94
2018-08-06T01:32:35.695Z,16.93
2018-08-06T01:33:35.684Z,16.94
2018-08-06T01:34:35.427Z,16.91
2018-08-06T01:35:35.674Z,16.93
2018-08-06T01:36:35.417Z,16.89
2018-08-06T01:37:35.666Z,16.94
2018-08-06T01:38:35.661Z,16.83
2018-08-06T01:39:35.656Z,16.85
2018-08-06T01:40:35.404Z,16.93
2018-08-06T01:41:35.651Z,16.88
2018-08-06T01:42:35.390Z,16.78
2018-08-06T01:43:35.640Z,16.82
2018-08-06T01:44:35.631Z,16.81
2018-08-06T01:45:35.379Z,16.76
2018-08-06T01:46:35.625Z,16.76
2018-08-06T01:47:35.368Z,16.81
2018-08-06T01:48:35.364Z,16.81
2018-08-06T01:49:35.358Z,16.82
2018-08-06T01:50:35.353Z,16.86
2018-08-06T01:51:35.601Z,16.83
2018-08-06T01:52:35.594Z,16.83
2018-08-06T01:53:35.591Z,16.73
2018-08-06T01:54:35.336Z,16.83
2018-08-06T01:55:35.591Z,16.78
2018-08-06T01:56:35.577Z,16.75
2018-08-06T01:57:35.578Z,16.78
2018-08-06T01:58:35.568Z,16.73
2018-08-06T01:59:35.566Z,16.71
2018-08-06T02:00:35.559Z,16.75
2018-08-06T02:01:35.555Z,16.78
2018-08-06T02:02:35.546Z,16.71
2018-08-06T02:03:35.542Z,16.71
2018-08-06T02:04:35.537Z,16.76
2018-08-06T02:05:35.531Z,16.76
2018-08-06T02:06:35.528Z,16.68
2018-08-06T02:07:35.525Z,16.71
2018-08-06T02:08:35.516Z,16.73
2018-08-06T02:09:35.766Z,16.7
2018-08-06T02:10:35.259Z,16.71
2018-08-06T02:11:35.505Z,16.66
2018-08-06T02:12:35.505Z,16.7
2018-08-06T02:13:35.244Z,16.63
2018-08-06T02:14:35.491Z,16.61
2018-08-06T02:15:35.489Z,16.68
2018-08-06T02:16:35.228Z,16.53
2018-08-06T02:17:35.480Z,16.53
2018-08-06T02:18:35.472Z,16.48
2018-08-06T02:19:35.471Z,16.56
2018-08-06T02:20:35.467Z,16.57
2018-08-06T02:21:35.462Z,16.57
2018-08-06T02:22:35.454Z,16.61
2018-08-06T02:23:35.452Z,16.53
2018-08-06T02:24:35.446Z,16.56
2018-08-06T02:25:35.440Z,16.49
2018-08-06T02:26:35.437Z,16.49
2018-08-06T02:27:35.425Z,16.56
2018-08-06T02:28:35.425Z,16.49
2018-08-06T02:29:35.415Z,16.5
2018-08-06T02:30:35.164Z,16.49
2018-08-06T02:31:34.906Z,16.49
2018-08-06T02:32:35.404Z,16.48
2018-08-06T02:33:35.414Z,16.49
2018-08-06T02:34:35.395Z,16.39
2018-08-06T02:35:35.400Z,16.46
2018-08-06T02:36:35.398Z,16.46
2018-08-06T02:37:35.385Z,16.45
2018-08-06T02:38:35.124Z,16.41
2018-08-06T02:39:35.373Z,16.38
2018-08-06T02:40:35.371Z,16.31
2018-08-06T02:41:35.371Z,16.33
2018-08-06T02:42:35.106Z,16.33
2018-08-06T02:43:35.101Z,16.33
2018-08-06T02:44:35.348Z,16.33
2018-08-06T02:45:35.340Z,16.33
2018-08-06T02:46:35.091Z,16.25
2018-08-06T02:47:35.079Z,16.3
2018-08-06T02:48:35.343Z,16.21
2018-08-06T02:49:35.067Z,16.24
2018-08-06T02:50:35.064Z,16.3
2018-08-06T02:51:35.310Z,16.31
2018-08-06T02:52:35.307Z,16.24
2018-08-06T02:53:35.300Z,16.23
2018-08-06T02:54:35.299Z,16.23
2018-08-06T02:55:35.290Z,16.21
2018-08-06T02:56:35.285Z,16.15
2018-08-06T02:57:35.029Z,16.07
2018-08-06T02:58:35.274Z,16.23
2018-08-06T02:59:35.269Z,16.09
2018-08-06T03:00:35.267Z,16.17
2018-08-06T03:01:35.266Z,16.17
2018-08-06T03:02:35.256Z,16.12
2018-08-06T03:03:35.254Z,16.15
2018-08-06T03:04:35.247Z,16.15
2018-08-06T03:05:35.273Z,16.09
2018-08-06T03:06:35.239Z,16
2018-08-06T03:07:35.233Z,16.08
2018-08-06T03:08:34.974Z,16.01
2018-08-06T03:09:35.225Z,16.02
2018-08-06T03:10:35.217Z,16.04
2018-08-06T03:11:35.213Z,16.02
2018-08-06T03:12:35.203Z,16.04
2018-08-06T03:13:35.200Z,15.93
2018-08-06T03:14:35.196Z,15.97
2018-08-06T03:15:35.195Z,16.01
2018-08-06T03:16:34.939Z,15.96
2018-08-06T03:17:35.178Z,16.05
2018-08-06T03:18:34.923Z,16.01
2018-08-06T03:19:35.169Z,16.01
2018-08-06T03:20:34.911Z,15.97
2018-08-06T03:21:35.188Z,16.04
2018-08-06T03:22:34.904Z,15.93
2018-08-06T03:23:35.159Z,15.96
2018-08-06T03:24:35.144Z,15.92
2018-08-06T03:25:35.137Z,15.93
2018-08-06T03:26:35.139Z,16
2018-08-06T03:27:35.428Z,15.97
2018-08-06T03:28:34.876Z,15.96
2018-08-06T03:29:34.927Z,15.9
2018-08-06T03:30:34.861Z,15.96
2018-08-06T03:31:35.121Z,15.92
2018-08-06T03:32:35.108Z,15.93
2018-08-06T03:33:35.104Z,15.89
2018-08-06T03:34:34.840Z,15.9
2018-08-06T03:35:35.091Z,15.89
2018-08-06T03:36:34.834Z,15.97
2018-08-06T03:37:35.078Z,15.86
2018-08-06T03:38:35.077Z,15.9
2018-08-06T03:39:34.814Z,15.87
2018-08-06T03:40:35.068Z,15.94
2018-08-06T03:41:35.056Z,15.93
2018-08-06T03:42:35.055Z,15.94
2018-08-06T03:43:34.796Z,15.94
2018-08-06T03:44:35.040Z,15.92
2018-08-06T03:45:35.035Z,15.97
2018-08-06T03:46:34.777Z,15.87
2018-08-06T03:47:35.029Z,15.96
2018-08-06T03:48:35.018Z,15.96
2018-08-06T03:49:35.020Z,15.96
2018-08-06T03:50:35.016Z,15.96
2018-08-06T03:51:34.756Z,16.02
2018-08-06T03:52:34.999Z,15.97
2018-08-06T03:53:34.993Z,16
2018-08-06T03:54:34.737Z,16.05
2018-08-06T03:55:34.733Z,16
2018-08-06T03:56:34.983Z,15.93
2018-08-06T03:57:34.720Z,16
2018-08-06T03:58:34.966Z,16.05
2018-08-06T03:59:34.966Z,16.05
2018-08-06T04:00:34.710Z,16.07
2018-08-06T04:01:34.950Z,16.09
2018-08-06T04:02:34.694Z,16.17
2018-08-06T04:03:34.941Z,16.15
2018-08-06T04:04:34.940Z,16.2
2018-08-06T04:05:34.930Z,16.17
2018-08-06T04:06:34.926Z,16.27
2018-08-06T04:07:34.669Z,16.24
2018-08-06T04:08:34.919Z,16.31
2018-08-06T04:09:34.910Z,16.43
2018-08-06T04:10:34.907Z,16.49
2018-08-06T04:11:34.906Z,16.67
2018-08-06T04:12:34.895Z,16.78
2018-08-06T04:13:35.092Z,17
2018-08-06T04:14:34.635Z,17.19
2018-08-06T04:15:34.629Z,17.38
2018-08-06T04:16:34.878Z,17.59
2018-08-06T04:17:34.876Z,17.89
2018-08-06T04:18:34.366Z,18.21
2018-08-06T04:19:34.890Z,18.5
2018-08-06T04:20:34.862Z,18.81
2018-08-06T04:21:34.605Z,18.98
2018-08-06T04:22:34.852Z,19.37
2018-08-06T04:23:34.877Z,19.63
2018-08-06T04:24:34.594Z,19.95
2018-08-06T04:25:34.847Z,20.11
2018-08-06T04:26:34.841Z,20.47
2018-08-06T04:27:34.585Z,20.69
2018-08-06T04:28:34.835Z,21.09
2018-08-06T04:29:34.833Z,21.32
2018-08-06T04:30:34.582Z,21.69
2018-08-06T04:31:34.828Z,21.94
2018-08-06T04:32:34.577Z,22.25
2018-08-06T04:33:34.580Z,22.49
2018-08-06T04:34:34.821Z,22.85
2018-08-06T04:35:34.570Z,23.23
2018-08-06T04:36:34.826Z,23.46
2018-08-06T04:37:34.568Z,23.8
2018-08-06T04:38:35.091Z,24.05
2018-08-06T04:39:34.819Z,24.22
2018-08-06T04:40:34.572Z,24.49
2018-08-06T04:41:34.825Z,24.87
2018-08-06T04:42:34.320Z,25.13
2018-08-06T04:43:34.569Z,25.38
2018-08-06T04:44:34.821Z,25.75
2018-08-06T04:45:34.571Z,26.05
2018-08-06T04:46:34.831Z,26.21
2018-08-06T04:47:34.830Z,26.45
2018-08-06T04:48:34.831Z,26.69
2018-08-06T04:49:34.839Z,26.88
2018-08-06T04:50:34.833Z,27.1
2018-08-06T04:51:34.837Z,27.27
2018-08-06T04:52:34.848Z,27.63
2018-08-06T04:53:34.593Z,27.87
2018-08-06T04:54:34.848Z,28.11
2018-08-06T04:55:34.599Z,28.36
2018-08-06T04:56:34.858Z,28.49
2018-08-06T04:57:34.861Z,28.8
2018-08-06T04:58:34.871Z,29.05
2018-08-06T04:59:34.943Z,29.18
2018-08-06T05:00:34.874Z,29.45
2018-08-06T05:01:34.880Z,29.73
2018-08-06T05:02:34.384Z,29.95
2018-08-06T05:03:34.893Z,30.02
2018-08-06T05:04:34.899Z,30.32
2018-08-06T05:05:34.904Z,30.43
2018-08-06T05:06:34.910Z,30.61
2018-08-06T05:07:34.914Z,30.92
2018-08-06T05:08:34.925Z,31.19
2018-08-06T05:09:34.682Z,31.32
2018-08-06T05:10:34.938Z,31.46
2018-08-06T05:11:34.947Z,31.69
2018-08-06T05:12:34.968Z,31.86
2018-08-06T05:13:35.059Z,32.07
2018-08-06T05:14:34.966Z,32.26
2018-08-06T05:15:34.722Z,32.37
2018-08-06T05:16:34.730Z,32.56
2018-08-06T05:17:34.991Z,32.75
2018-08-06T05:18:34.998Z,32.88
2018-08-06T05:19:35.258Z,33.04
2018-08-06T05:20:34.763Z,33.21
2018-08-06T05:21:35.024Z,33.38
2018-08-06T05:22:35.031Z,33.5
2018-08-06T05:23:34.790Z,33.63
2018-08-06T05:24:35.057Z,33.75
2018-08-06T05:25:35.060Z,33.81
2018-08-06T05:26:35.085Z,33.86
2018-08-06T05:27:35.075Z,33.87
2018-08-06T05:28:35.086Z,33.93
2018-08-06T05:29:35.096Z,34.06
2018-08-06T05:30:35.109Z,34.06
2018-08-06T05:31:35.118Z,34.16
2018-08-06T05:32:35.122Z,34.22
2018-08-06T05:33:35.134Z,34.34
2018-08-06T05:34:35.142Z,34.35
2018-08-06T05:35:34.906Z,34.49
2018-08-06T05:36:35.205Z,34.65
2018-08-06T05:37:35.178Z,34.78
2018-08-06T05:38:34.939Z,34.94
2018-08-06T05:39:35.194Z,35.1
2018-08-06T05:40:35.209Z,35.1
2018-08-06T05:41:35.219Z,35.15
2018-08-06T05:42:34.976Z,35.26
2018-08-06T05:43:35.235Z,35.31
2018-08-06T05:44:34.994Z,35.33
2018-08-06T05:45:35.264Z,35.5
2018-08-06T05:46:35.268Z,35.38
2018-08-06T05:47:35.279Z,35.44
2018-08-06T05:48:35.040Z,35.48
2018-08-06T05:49:35.303Z,35.47
2018-08-06T05:50:35.313Z,35.5
2018-08-06T05:51:35.324Z,35.6
2018-08-06T05:52:35.335Z,35.55
2018-08-06T05:53:35.343Z,35.68
2018-08-06T05:54:35.352Z,35.75
2018-08-06T05:55:37.918Z,35.77
2018-08-06T05:56:35.376Z,35.71
2018-08-06T05:57:35.389Z,35.75
2018-08-06T05:58:35.417Z,35.89
2018-08-06T05:59:35.411Z,35.89
2018-08-06T06:00:35.173Z,36
2018-08-06T06:01:35.435Z,36.12
2018-08-06T06:02:38.192Z,36.08
2018-08-06T06:03:44.944Z,36
2018-08-06T06:04:35.471Z,36.03
2018-08-06T06:05:35.482Z,36.07
2018-08-06T06:06:35.492Z,36.15
2018-08-06T06:07:36.530Z,36
2018-08-06T06:08:35.518Z,36.03
2018-08-06T06:10:35.290Z,36.31
2018-08-06T06:11:35.552Z,36.51
2018-08-06T06:13:35.574Z,36.72
2018-08-06T06:14:36.612Z,36.75
2018-08-06T06:15:35.599Z,36.94
2018-08-06T06:16:35.613Z,37.12
2018-08-06T06:17:35.624Z,37.28
2018-08-06T06:18:35.643Z,37.4
2018-08-06T06:19:35.648Z,37.55
2018-08-06T06:20:35.664Z,37.66
2018-08-06T06:21:35.677Z,37.81
2018-08-06T06:22:35.688Z,37.93
2018-08-06T06:23:35.704Z,38
2018-08-06T06:24:35.719Z,38.19
2018-08-06T06:25:35.481Z,38.31
2018-08-06T06:26:35.744Z,38.46
2018-08-06T06:27:35.504Z,38.59
2018-08-06T06:28:35.923Z,38.6
2018-08-06T06:29:35.561Z,38.56
2018-08-06T06:30:35.799Z,38.61
2018-08-06T06:31:35.816Z,38.66
2018-08-06T06:32:35.829Z,38.61
2018-08-06T06:33:35.843Z,38.66
2018-08-06T06:34:35.776Z,38.57
2018-08-06T06:35:35.872Z,38.46
2018-08-06T06:36:35.894Z,38.46
2018-08-06T06:37:35.911Z,38.35
2018-08-06T06:38:35.918Z,38.38
2018-08-06T06:39:35.678Z,38.5
2018-08-06T06:40:35.701Z,38.66
2018-08-06T06:41:36.010Z,38.79
2018-08-06T06:42:35.978Z,38.93
2018-08-06T06:43:35.999Z,39.01
2018-08-06T06:44:36.008Z,39.14
2018-08-06T06:45:36.023Z,39.28
2018-08-06T06:46:36.045Z,39.45
2018-08-06T06:47:36.056Z,39.45
2018-08-06T06:48:36.070Z,39.44
2018-08-06T06:49:36.103Z,39.52
2018-08-06T06:50:36.113Z,39.6
2018-08-06T06:51:36.121Z,39.55
2018-08-06T06:52:36.134Z,39.51
2018-08-06T06:53:35.896Z,39.51
2018-08-06T06:54:36.460Z,39.5
2018-08-06T06:55:36.182Z,39.69
2018-08-06T06:56:36.197Z,39.7
2018-08-06T06:57:36.217Z,39.79
2018-08-06T06:58:36.234Z,39.94
2018-08-06T06:59:35.995Z,40.03
2018-08-06T07:00:36.268Z,40.16
2018-08-06T07:01:36.282Z,40.13
2018-08-06T07:02:36.046Z,40.13
2018-08-06T07:03:36.063Z,40.2
2018-08-06T07:04:36.333Z,40.25
2018-08-06T07:05:36.096Z,40.26
2018-08-06T07:06:36.125Z,40.26
2018-08-06T07:07:36.130Z,40.32
2018-08-06T07:08:36.154Z,40.38
2018-08-06T07:09:36.418Z,40.51
2018-08-06T07:10:36.434Z,40.55
2018-08-06T07:11:36.453Z,40.58
2018-08-06T07:12:36.217Z,40.6
2018-08-06T07:13:36.610Z,40.55
2018-08-06T07:14:36.501Z,40.54
2018-08-06T07:15:36.520Z,40.48
2018-08-06T07:16:36.539Z,40.51
2018-08-06T07:17:36.301Z,40.62
2018-08-06T07:18:36.573Z,40.67
2018-08-06T07:19:36.338Z,40.67
2018-08-06T07:20:36.606Z,40.61
2018-08-06T07:21:36.375Z,40.74
2018-08-06T07:22:36.389Z,40.79
2018-08-06T07:23:36.405Z,40.91
2018-08-06T07:24:36.674Z,41.1
2018-08-06T07:25:36.445Z,41.2
2018-08-06T07:26:36.709Z,41.45
2018-08-06T07:27:36.731Z,41.55
2018-08-06T07:28:36.750Z,41.6
2018-08-06T07:29:36.763Z,41.78
2018-08-06T07:30:36.787Z,41.89
2018-08-06T07:31:36.546Z,41.99
2018-08-06T07:32:36.816Z,42.06
2018-08-06T07:33:36.637Z,42.2
2018-08-06T07:34:36.855Z,42.23
2018-08-06T07:35:36.621Z,42.28
2018-08-06T07:36:36.893Z,42.28
2018-08-06T07:37:36.906Z,42.3
2018-08-06T07:38:36.925Z,42.23
2018-08-06T07:39:36.946Z,42.12
2018-08-06T07:40:36.714Z,42.01
2018-08-06T07:41:36.976Z,42.05
2018-08-06T07:42:36.997Z,42.02
2018-08-06T07:43:37.016Z,41.89
2018-08-06T07:44:37.036Z,41.69
2018-08-06T07:45:36.801Z,41.63
2018-08-06T07:46:37.069Z,41.63
2018-08-06T07:47:36.583Z,41.54
2018-08-06T07:48:36.856Z,41.47
2018-08-06T07:49:37.107Z,41.32
2018-08-06T07:50:37.140Z,41.32
2018-08-06T07:51:37.162Z,41.18
2018-08-06T07:52:37.176Z,41.18
2018-08-06T07:53:36.943Z,41.16
2018-08-06T07:54:37.212Z,40.92
2018-08-06T07:55:36.977Z,40.83
2018-08-06T07:56:37.252Z,40.91
2018-08-06T07:57:37.267Z,40.79
2018-08-06T07:58:37.291Z,40.84
2018-08-06T08:01:37.339Z,40.74
2018-08-06T08:02:39.036Z,40.8
2018-08-06T08:03:37.376Z,40.76
2018-08-06T08:04:37.392Z,40.53
2018-08-06T08:05:37.410Z,40.26
2018-08-06T08:06:37.581Z,40.23
2018-08-06T08:07:37.442Z,40.25
2018-08-06T08:08:37.469Z,40.25
2018-08-06T08:09:37.481Z,40.31
2018-08-06T08:10:37.494Z,40.19
2018-08-06T08:11:37.512Z,40.19
2018-08-06T08:12:37.530Z,40.13
2018-08-06T08:13:37.296Z,39.66
2018-08-06T08:14:37.564Z,39.14
2018-08-06T08:15:37.328Z,38.41
2018-08-06T08:16:37.601Z,37.75
2018-08-06T08:17:37.616Z,37.41
2018-08-06T08:18:37.378Z,37.1
2018-08-06T08:19:38.092Z,36.99
2018-08-06T08:20:37.663Z,36.9
2018-08-06T08:21:37.429Z,36.84
2018-08-06T08:22:37.191Z,37.03
2018-08-06T08:23:37.719Z,37.05
2018-08-06T08:24:37.473Z,37.07
2018-08-06T08:25:37.740Z,36.87
2018-08-06T08:26:37.763Z,36.78
2018-08-06T08:27:37.518Z,36.62
2018-08-06T08:28:37.284Z,36.69
2018-08-06T08:29:37.809Z,36.66
2018-08-06T08:30:37.569Z,36.53
2018-08-06T08:31:37.832Z,36.17
2018-08-06T08:32:37.847Z,35.74
2018-08-06T08:33:37.861Z,35.11
2018-08-06T08:34:37.880Z,34.54
2018-08-06T08:35:37.641Z,34.25
2018-08-06T08:36:37.905Z,34.05
2018-08-06T08:37:37.925Z,33.82
2018-08-06T08:38:37.937Z,33.63
2018-08-06T08:39:38.079Z,33.78
2018-08-06T08:40:37.712Z,33.82
2018-08-06T08:41:37.984Z,33.76
2018-08-06T08:42:37.993Z,33.63
2018-08-06T08:43:38.015Z,33.45
2018-08-06T08:44:38.022Z,33.14
2018-08-06T08:45:38.298Z,33.01
2018-08-06T08:46:38.049Z,32.87
2018-08-06T08:47:38.061Z,32.78
2018-08-06T08:48:38.079Z,32.67
2018-08-06T08:49:37.839Z,32.56
2018-08-06T08:50:37.854Z,32.33
2018-08-06T08:51:38.114Z,31.95
2018-08-06T08:52:38.219Z,31.65
2018-08-06T08:53:38.140Z,31.16
2018-08-06T08:54:38.164Z,30.88
2018-08-06T08:55:37.911Z,30.61
2018-08-06T08:56:37.923Z,30.47
2018-08-06T08:57:37.681Z,30.29
2018-08-06T08:58:38.512Z,30.04
2018-08-06T08:59:38.203Z,29.86
2018-08-06T09:00:38.210Z,29.71
2018-08-06T09:01:37.977Z,29.46
2018-08-06T09:02:38.231Z,29.18
2018-08-06T09:03:38.238Z,29.05
2018-08-06T09:04:38.244Z,28.9
2018-08-06T09:05:38.252Z,28.78
2018-08-06T09:06:38.259Z,28.62
2018-08-06T09:07:38.266Z,28.39
2018-08-06T09:08:38.272Z,28.24
2018-08-06T09:09:38.283Z,27.96
2018-08-06T09:10:38.286Z,27.66
2018-08-06T09:11:38.292Z,27.62
2018-08-06T09:12:38.303Z,27.19
2018-08-06T09:13:38.053Z,27.04
2018-08-06T09:14:38.313Z,26.95
2018-08-06T09:15:38.317Z,26.8
2018-08-06T09:16:38.389Z,26.82
2018-08-06T09:17:38.328Z,26.67
2018-08-06T09:18:38.330Z,26.62
2018-08-06T09:19:38.085Z,26.45
2018-08-06T09:20:38.341Z,26.3
2018-08-06T09:21:38.346Z,26.1
2018-08-06T09:22:38.093Z,25.98
2018-08-06T09:23:38.348Z,25.87
2018-08-06T09:24:38.107Z,25.88
2018-08-06T09:25:38.362Z,25.82
2018-08-06T09:26:38.427Z,25.92
2018-08-06T09:27:38.109Z,26.06
2018-08-06T09:28:38.369Z,25.91
2018-08-06T09:29:38.119Z,26.05
2018-08-06T09:30:38.377Z,25.98
2018-08-06T09:31:38.121Z,26.1
2018-08-06T09:32:38.378Z,26.02
2018-08-06T09:33:38.378Z,26.06
2018-08-06T09:34:38.387Z,26.12
2018-08-06T09:35:38.384Z,26.02
2018-08-06T09:36:38.384Z,26.1
2018-08-06T09:37:38.397Z,26.1
2018-08-06T09:38:38.395Z,26.06
2018-08-06T09:39:38.400Z,26.18
2018-08-06T09:40:38.683Z,26.13
2018-08-06T09:41:38.396Z,26.28
2018-08-06T09:42:38.149Z,26.21
2018-08-06T09:43:38.407Z,26.17
2018-08-06T09:44:38.151Z,26.17
2018-08-06T09:45:38.405Z,26.2
2018-08-06T09:46:38.412Z,26.13
2018-08-06T09:47:38.409Z,26.15
2018-08-06T09:48:38.560Z,26.15
2018-08-06T09:49:38.163Z,26.09
2018-08-06T09:50:38.416Z,25.98
2018-08-06T09:51:38.165Z,26.1
2018-08-06T09:52:38.168Z,26.02
2018-08-06T09:53:38.423Z,25.95
2018-08-06T09:54:38.171Z,25.95
2018-08-06T09:55:38.426Z,26.01
2018-08-06T09:56:38.426Z,25.99
2018-08-06T09:57:38.178Z,25.77
2018-08-06T09:58:38.436Z,25.88
2018-08-06T09:59:38.435Z,25.9
2018-08-06T10:00:38.434Z,25.79
2018-08-06T10:01:38.437Z,25.85
2018-08-06T10:02:38.446Z,25.92
2018-08-06T10:03:38.192Z,25.98
2018-08-06T10:04:38.445Z,25.97
2018-08-06T10:05:38.281Z,25.98
2018-08-06T10:06:39.119Z,26.1
2018-08-06T10:07:38.446Z,26.01
2018-08-06T10:08:38.452Z,25.99
2018-08-06T10:09:38.200Z,26.02
2018-08-06T10:10:38.454Z,25.99
2018-08-06T10:11:38.202Z,25.87
2018-08-06T10:12:38.459Z,26.02
2018-08-06T10:13:38.462Z,26.06
2018-08-06T10:14:38.477Z,26.05
2018-08-06T10:15:38.471Z,26.05
2018-08-06T10:16:38.463Z,26.05
2018-08-06T10:17:38.483Z,26.09
2018-08-06T10:18:38.479Z,26.18
2018-08-06T10:19:38.823Z,26.25
2018-08-06T10:20:38.471Z,26.3
2018-08-06T10:21:38.472Z,26.3
2018-08-06T10:22:38.474Z,26.26
2018-08-06T10:23:38.476Z,26.21
2018-08-06T10:24:38.806Z,26.25
2018-08-06T10:25:38.481Z,26.28
2018-08-06T10:26:38.480Z,26.29
2018-08-06T10:27:38.484Z,26.33
2018-08-06T10:28:38.240Z,26.33
2018-08-06T10:29:38.495Z,26.36
2018-08-06T10:30:38.397Z,26.48
2018-08-06T10:31:38.495Z,26.44
2018-08-06T10:32:38.496Z,26.36
2018-08-06T10:33:38.244Z,26.33
2018-08-06T10:34:38.499Z,26.35
2018-08-06T10:35:38.504Z,26.26
2018-08-06T10:36:38.248Z,26.3
2018-08-06T10:37:38.502Z,26.39
2018-08-06T10:38:38.510Z,26.36
2018-08-06T10:39:38.256Z,26.4
2018-08-06T10:40:38.618Z,26.4
2018-08-06T10:41:38.512Z,26.52
2018-08-06T10:42:38.266Z,26.58
2018-08-06T10:43:38.514Z,26.6
2018-08-06T10:44:38.516Z,26.72
2018-08-06T10:45:38.519Z,26.67
2018-08-06T10:46:38.268Z,26.75
2018-08-06T10:47:51.258Z,26.81
2018-08-06T10:48:38.649Z,26.77
2018-08-06T10:49:38.276Z,26.8
2018-08-06T10:50:38.527Z,26.66
2018-08-06T10:51:38.532Z,26.84
2018-08-06T10:52:38.532Z,26.8
2018-08-06T10:53:38.537Z,26.76
2018-08-06T10:54:38.285Z,26.82
2018-08-06T10:55:38.537Z,26.82
2018-08-06T10:56:38.038Z,26.82
2018-08-06T10:57:38.308Z,26.89
2018-08-06T10:58:38.542Z,26.81
2018-08-06T10:59:38.390Z,26.85
2018-08-06T11:00:38.612Z,26.87
2018-08-06T11:01:38.549Z,26.89
2018-08-06T11:02:38.300Z,26.91
2018-08-06T11:03:38.560Z,26.95
2018-08-06T11:04:38.556Z,27.02
2018-08-06T11:05:38.328Z,26.95
2018-08-06T11:06:38.795Z,27
2018-08-06T11:07:38.566Z,26.99
2018-08-06T11:08:38.565Z,27.03
2018-08-06T11:09:38.316Z,27.03
2018-08-06T11:10:38.570Z,27.04
2018-08-06T11:11:38.579Z,27.12
2018-08-06T11:12:38.577Z,27.09
2018-08-06T11:13:38.575Z,27
2018-08-06T11:14:38.589Z,27.21
2018-08-06T11:15:38.587Z,27.06
2018-08-06T11:16:38.592Z,27.14
2018-08-06T11:17:38.583Z,27.1
2018-08-06T11:18:38.587Z,27.22
2018-08-06T11:19:38.343Z,27.32
2018-08-06T11:20:38.919Z,27.29
2018-08-06T11:21:38.343Z,27.34
2018-08-06T11:22:38.094Z,27.29
2018-08-06T11:23:38.599Z,27.36
2018-08-06T11:24:38.849Z,27.41
2018-08-06T11:25:38.608Z,27.44
2018-08-06T11:26:38.608Z,27.46
2018-08-06T11:27:38.609Z,27.47
2018-08-06T11:28:38.835Z,27.5
2018-08-06T11:29:38.612Z,27.49
2018-08-06T11:30:38.615Z,27.59
2018-08-06T11:31:38.369Z,27.54
2018-08-06T11:32:38.627Z,27.51
2018-08-06T11:33:38.623Z,27.62
2018-08-06T11:34:38.375Z,27.59
2018-08-06T11:35:38.625Z,27.59
2018-08-06T11:36:38.396Z,27.63
2018-08-06T11:37:38.380Z,27.59
2018-08-06T11:38:38.639Z,27.59
2018-08-06T11:39:38.640Z,27.57
2018-08-06T11:40:38.642Z,27.47
2018-08-06T11:41:38.641Z,27.44
2018-08-06T11:42:38.642Z,27.41
2018-08-06T11:43:38.687Z,27.32
2018-08-06T11:44:38.648Z,27.31
2018-08-06T11:45:38.655Z,27.22
2018-08-06T11:46:38.670Z,27.19
2018-08-06T11:47:38.665Z,27.24
2018-08-06T11:48:38.658Z,27.27
2018-08-06T11:49:38.668Z,27.1
2018-08-06T11:50:38.664Z,27.13
2018-08-06T11:51:38.665Z,27.13
2018-08-06T11:52:38.671Z,27.18
2018-08-06T11:53:38.669Z,27.12
2018-08-06T11:54:38.675Z,27.22
2018-08-06T11:55:38.687Z,27.24
2018-08-06T11:56:39.004Z,27.13
2018-08-06T11:57:38.430Z,27.17
2018-08-06T11:58:38.434Z,27.19
2018-08-06T11:59:38.707Z,27.14
2018-08-06T12:00:38.436Z,27.24
2018-08-06T12:01:38.439Z,27.13
2018-08-06T12:02:38.697Z,27.29
2018-08-06T12:03:38.709Z,27.28
2018-08-06T12:04:38.712Z,27.28
2018-08-06T12:05:38.751Z,27.27
2018-08-06T12:06:38.709Z,27.34
2018-08-06T12:07:38.703Z,27.34
2018-08-06T12:08:38.828Z,27.41
2018-08-06T12:09:38.717Z,27.36
2018-08-06T12:10:38.710Z,27.44
2018-08-06T12:11:38.717Z,27.41
2018-08-06T12:12:38.714Z,27.43
2018-08-06T12:13:38.525Z,27.47
2018-08-06T12:14:38.721Z,27.47
2018-08-06T12:15:38.722Z,27.51
2018-08-06T12:16:38.736Z,27.47
2018-08-06T12:17:38.755Z,27.5
2018-08-06T12:18:38.732Z,27.54
2018-08-06T12:19:38.481Z,27.57
2018-08-06T12:20:38.737Z,27.6
2018-08-06T12:21:38.737Z,27.62
2018-08-06T12:22:38.741Z,27.63
2018-08-06T12:23:38.800Z,27.6
2018-08-06T12:24:38.746Z,27.47
2018-08-06T12:25:38.761Z,27.46
2018-08-06T12:26:38.504Z,27.47
2018-08-06T12:27:38.775Z,27.5
2018-08-06T12:28:38.751Z,27.54
2018-08-06T12:29:38.761Z,27.57
2018-08-06T12:30:38.761Z,27.62
2018-08-06T12:31:39.017Z,27.57
2018-08-06T12:32:38.766Z,27.63
2018-08-06T12:33:38.824Z,27.72
2018-08-06T12:34:38.771Z,27.77
2018-08-06T12:35:38.777Z,27.72
2018-08-06T12:36:38.521Z,27.67
2018-08-06T12:37:38.776Z,27.77
2018-08-06T12:38:38.779Z,27.81
2018-08-06T12:39:38.783Z,27.74
2018-08-06T12:40:38.783Z,27.78
2018-08-06T12:41:38.786Z,27.77
2018-08-06T12:42:38.790Z,27.81
2018-08-06T12:43:38.796Z,27.74
2018-08-06T12:44:38.792Z,27.75
2018-08-06T12:45:38.294Z,27.75
2018-08-06T12:46:38.800Z,27.72
2018-08-06T12:47:38.802Z,27.79
2018-08-06T12:48:38.806Z,27.77
2018-08-06T12:49:38.808Z,27.69
2018-08-06T12:50:38.814Z,27.77
2018-08-06T12:51:39.006Z,27.81
2018-08-06T12:52:38.813Z,27.74
2018-08-06T12:53:38.817Z,27.72
2018-08-06T12:54:38.818Z,27.79
2018-08-06T12:55:38.820Z,27.88
2018-08-06T12:56:38.882Z,27.87
2018-08-06T12:57:38.841Z,27.81
2018-08-06T12:58:38.834Z,27.77
2018-08-06T12:59:38.837Z,27.85
2018-08-06T13:00:38.582Z,27.79